RKTH/KPO METAR and TAF weather

Enter ICAO airport designator
Station Type Date Time Source
RKTH METAR 2021/05/19 03:37 UTC NOAA

RKTH 190337Z 13003KT 9999 FEW030 28/11 A2983


Station Type Date Time Source
RKTH Decoded METAR 2021/05/19 03:37 UTC NOAA

Pohang Ab, Korea, South (RKTH) 35-59N 129-25E 20M
May 18, 2021 - 11:37 PM EDT / 2021.05.19 0337 UTC
Wind: from the SE (130 degrees) at 3 MPH (3 KT):0
Visibility: greater than 7 mile(s):0
Sky conditions: mostly clear
Temperature: 82 F (28 C)
Dew Point: 51 F (11 C)
Relative Humidity: 34%
Pressure (altimeter): 29.83 in. Hg (1010 hPa)
ob: RKTH 190337Z 13003KT 9999 FEW030 28/11 A2983
cycle: 3

Station Type Date Time Source
RKTH TAF 2022/12/19 18:59 UTC NOAA

TAF RKTH 191700Z 1918/2024 27010GP99KT 9999 SCT030 BKN200 TNM04/1921Z TX07/2006Z
BECMG 2014/2015 24010KT 8000 SCT015 BKN030
BECMG 2023/2024 BKN015 OVC030

Example: see airport list